Terminal Aerodrome Forecast
Issued by NWS

Home | Current Version | Previous Version | Text Only | Print | Product List | Glossary On
Versions: 1 2 3 4 5 6 7 8 9 10 11 12 13 14
803
FTUS41 KBTV 250539
TAFSLK
TAF
KSLK 250539Z 2506/2606 VRB03KT P6SM BKN250
     FM251400 11010KT P6SM OVC100
     FM251800 13012G20KT P6SM VCSH OVC050
     FM252200 12010KT P6SM VCSH OVC035
     FM260200 10007KT 5SM -SHRA BR OVC020=

USA.gov is the U.S. government's official web portal to all federal, state and local government web resources and services.